sensor_id;sensor_type;location;lat;lon;timestamp;pressure;altitude;pressure_sealevel;temperature;humidity
74637;BME280;63141;54.616;39.754;2023-02-28T00:02:52;100616.41;;;22.84;26.62
74637;BME280;63141;54.616;39.754;2023-02-28T00:05:58;100630.59;;;22.84;26.75
74637;BME280;63141;54.616;39.754;2023-02-28T00:09:00;100631.50;;;22.83;26.74
74637;BME280;63141;54.616;39.754;2023-02-28T00:12:01;100621.81;;;22.82;26.76
74637;BME280;63141;54.616;39.754;2023-02-28T00:15:11;100623.53;;;22.83;26.63
74637;BME280;63141;54.616;39.754;2023-02-28T00:18:12;100627.13;;;22.82;26.80
74637;BME280;63141;54.616;39.754;2023-02-28T00:21:15;100619.19;;;22.80;26.89
74637;BME280;63141;54.616;39.754;2023-02-28T00:24:16;100615.69;;;22.80;26.98
74637;BME280;63141;54.616;39.754;2023-02-28T00:27:18;100627.22;;;22.79;26.72
74637;BME280;63141;54.616;39.754;2023-02-28T00:30:22;100623.66;;;22.80;26.94
74637;BME280;63141;54.616;39.754;2023-02-28T00:33:24;100637.81;;;22.79;26.87
74637;BME280;63141;54.616;39.754;2023-02-28T00:36:25;100636.09;;;22.78;26.87
74637;BME280;63141;54.616;39.754;2023-02-28T00:39:27;100627.22;;;22.79;26.79
74637;BME280;63141;54.616;39.754;2023-02-28T00:42:30;100620.19;;;22.78;26.90
74637;BME280;63141;54.616;39.754;2023-02-28T00:45:32;100619.31;;;22.77;26.75
74637;BME280;63141;54.616;39.754;2023-02-28T00:48:33;100618.44;;;22.77;26.79
74637;BME280;63141;54.616;39.754;2023-02-28T00:51:34;100618.44;;;22.77;26.74
74637;BME280;63141;54.616;39.754;2023-02-28T00:54:36;100620.22;;;22.76;26.76
74637;BME280;63141;54.616;39.754;2023-02-28T00:57:37;100616.69;;;22.76;26.73
74637;BME280;63141;54.616;39.754;2023-02-28T01:00:41;100607.88;;;22.75;26.73
74637;BME280;63141;54.616;39.754;2023-02-28T01:03:42;100612.25;;;22.76;26.83
74637;BME280;63141;54.616;39.754;2023-02-28T01:06:46;100614.03;;;22.76;26.83
74637;BME280;63141;54.616;39.754;2023-02-28T01:09:47;100608.75;;;22.76;26.76
74637;BME280;63141;54.616;39.754;2023-02-28T01:12:49;100610.53;;;22.75;26.77
74637;BME280;63141;54.616;39.754;2023-02-28T01:15:52;100607.88;;;22.75;26.51
74637;BME280;63141;54.616;39.754;2023-02-28T01:18:55;100608.75;;;22.76;26.72
74637;BME280;63141;54.616;39.754;2023-02-28T01:21:56;100607.00;;;22.75;26.84
74637;BME280;63141;54.616;39.754;2023-02-28T01:24:58;100599.06;;;22.75;26.64
74637;BME280;63141;54.616;39.754;2023-02-28T01:27:59;100596.41;;;22.75;26.72
74637;BME280;63141;54.616;39.754;2023-02-28T01:31:04;100596.41;;;22.75;26.64
74637;BME280;63141;54.616;39.754;2023-02-28T01:34:06;100589.34;;;22.74;26.83
74637;BME280;63141;54.616;39.754;2023-02-28T01:37:10;100590.28;;;22.73;26.64
74637;BME280;63141;54.616;39.754;2023-02-28T01:40:12;100590.28;;;22.73;26.57
74637;BME280;63141;54.616;39.754;2023-02-28T01:43:29;100590.28;;;22.73;26.60
74637;BME280;63141;54.616;39.754;2023-02-28T01:46:33;100584.97;;;22.73;26.78
74637;BME280;63141;54.616;39.754;2023-02-28T01:49:35;100584.97;;;22.73;26.92
74637;BME280;63141;54.616;39.754;2023-02-28T01:52:36;100579.66;;;22.73;26.70
74637;BME280;63141;54.616;39.754;2023-02-28T01:55:39;100579.66;;;22.73;26.65
74637;BME280;63141;54.616;39.754;2023-02-28T01:58:42;100574.34;;;22.73;26.72
74637;BME280;63141;54.616;39.754;2023-02-28T02:01:46;100567.28;;;22.72;26.75
74637;BME280;63141;54.616;39.754;2023-02-28T02:05:07;100561.97;;;22.72;26.68
74637;BME280;63141;54.616;39.754;2023-02-28T02:08:15;100557.59;;;22.71;26.74
74637;BME280;63141;54.616;39.754;2023-02-28T02:11:19;100548.75;;;22.70;26.70
74637;BME280;63141;54.616;39.754;2023-02-28T02:14:37;100549.63;;;22.71;26.59
74637;BME280;63141;54.616;39.754;2023-02-28T02:17:46;100557.59;;;22.71;26.71
74637;BME280;63141;54.616;39.754;2023-02-28T02:34:36;100546.16;;;22.69;26.57
74637;BME280;63141;54.616;39.754;2023-02-28T02:38:11;100546.16;;;22.69;26.55
74637;BME280;63141;54.616;39.754;2023-02-28T02:41:36;100547.00;;;22.69;26.44
74637;BME280;63141;54.616;39.754;2023-02-28T02:44:43;100544.44;;;22.68;26.47
74637;BME280;63141;54.616;39.754;2023-02-28T02:47:48;100543.50;;;22.69;26.59
74637;BME280;63141;54.616;39.754;2023-02-28T02:50:54;100549.75;;;22.68;26.47
74637;BME280;63141;54.616;39.754;2023-02-28T02:54:20;100537.31;;;22.68;26.51
74637;BME280;63141;54.616;39.754;2023-02-28T02:57:32;100546.16;;;22.69;26.46
74637;BME280;63141;54.616;39.754;2023-02-28T03:00:41;100538.19;;;22.69;26.52
74637;BME280;63141;54.616;39.754;2023-02-28T03:03:50;100532.06;;;22.67;26.30
74637;BME280;63141;54.616;39.754;2023-02-28T03:06:52;100517.88;;;22.68;26.35
74637;BME280;63141;54.616;39.754;2023-02-28T03:09:57;100530.34;;;22.66;26.30
74637;BME280;63141;54.616;39.754;2023-02-28T03:26:21;100492.34;;;22.64;26.50
74637;BME280;63141;54.616;39.754;2023-02-28T03:29:38;100491.34;;;22.68;26.62
74637;BME280;63141;54.616;39.754;2023-02-28T03:36:28;100483.25;;;22.71;26.45
74637;BME280;63141;54.616;39.754;2023-02-28T03:39:39;100480.59;;;22.71;26.47
74637;BME280;63141;54.616;39.754;2023-02-28T03:42:46;100478.75;;;22.73;26.65
74637;BME280;63141;54.616;39.754;2023-02-28T03:45:49;100465.47;;;22.73;26.69
74637;BME280;63141;54.616;39.754;2023-02-28T03:49:09;100459.22;;;22.74;27.00
74637;BME280;63141;54.616;39.754;2023-02-28T03:52:14;100463.63;;;22.75;27.05
74637;BME280;63141;54.616;39.754;2023-02-28T03:55:16;100459.22;;;22.74;26.93
74637;BME280;63141;54.616;39.754;2023-02-28T03:58:26;100453.91;;;22.74;26.79
74637;BME280;63141;54.616;39.754;2023-02-28T04:01:38;100440.63;;;22.74;26.84
74637;BME280;63141;54.616;39.754;2023-02-28T04:04:42;100440.63;;;22.74;26.67
74637;BME280;63141;54.616;39.754;2023-02-28T04:07:49;100432.66;;;22.74;26.73
74637;BME280;63141;54.616;39.754;2023-02-28T04:10:59;100437.97;;;22.74;26.66
74637;BME280;63141;54.616;39.754;2023-02-28T04:14:07;100430.31;;;22.66;25.35
74637;BME280;63141;54.616;39.754;2023-02-28T04:17:08;100418.41;;;22.53;24.86
74637;BME280;63141;54.616;39.754;2023-02-28T04:20:10;100426.84;;;22.41;24.41
74637;BME280;63141;54.616;39.754;2023-02-28T04:23:12;100430.69;;;22.32;24.20
74637;BME280;63141;54.616;39.754;2023-02-28T04:26:14;100428.59;;;22.15;23.78
74637;BME280;63141;54.616;39.754;2023-02-28T04:29:21;100430.00;;;22.00;23.44
74637;BME280;63141;54.616;39.754;2023-02-28T04:32:22;100429.47;;;21.90;23.32
74637;BME280;63141;54.616;39.754;2023-02-28T04:35:24;100420.03;;;21.82;23.05
74637;BME280;63141;54.616;39.754;2023-02-28T04:38:25;100405.31;;;21.73;22.70
74637;BME280;63141;54.616;39.754;2023-02-28T04:41:26;100411.63;;;21.69;22.65
74637;BME280;63141;54.616;39.754;2023-02-28T04:44:28;100413.53;;;21.65;22.17
74637;BME280;63141;54.616;39.754;2023-02-28T04:47:29;100400.47;;;21.59;22.03
74637;BME280;63141;54.616;39.754;2023-02-28T04:50:31;100391.69;;;21.57;21.88
74637;BME280;63141;54.616;39.754;2023-02-28T04:53:32;100395.38;;;21.53;21.68
74637;BME280;63141;54.616;39.754;2023-02-28T04:56:34;100383.97;;;21.51;21.49
74637;BME280;63141;54.616;39.754;2023-02-28T04:59:35;100382.41;;;21.44;21.25
74637;BME280;63141;54.616;39.754;2023-02-28T05:02:39;100361.59;;;21.31;21.39
74637;BME280;63141;54.616;39.754;2023-02-28T05:05:40;100365.19;;;21.30;22.41
74637;BME280;63141;54.616;39.754;2023-02-28T05:08:44;100362.28;;;21.38;22.88
74637;BME280;63141;54.616;39.754;2023-02-28T05:11:46;100361.13;;;21.47;22.67
74637;BME280;63141;54.616;39.754;2023-02-28T05:14:47;100362.63;;;21.56;22.66
74637;BME280;63141;54.616;39.754;2023-02-28T05:17:48;100362.38;;;21.62;22.87
74637;BME280;63141;54.616;39.754;2023-02-28T05:20:50;100355.09;;;21.68;22.64
74637;BME280;63141;54.616;39.754;2023-02-28T05:23:53;100354.88;;;21.74;22.77
74637;BME280;63141;54.616;39.754;2023-02-28T05:26:55;100347.63;;;21.80;22.79
74637;BME280;63141;54.616;39.754;2023-02-28T05:29:56;100343.03;;;21.85;23.02
74637;BME280;63141;54.616;39.754;2023-02-28T05:32:58;100341.88;;;21.92;23.05
74637;BME280;63141;54.616;39.754;2023-02-28T05:35:59;100340.03;;;21.94;22.73
74637;BME280;63141;54.616;39.754;2023-02-28T05:39:01;100321.31;;;21.99;23.15
74637;BME280;63141;54.616;39.754;2023-02-28T05:42:02;100317.69;;;22.01;22.91
74637;BME280;63141;54.616;39.754;2023-02-28T05:45:05;100314.09;;;22.04;23.12
74637;BME280;63141;54.616;39.754;2023-02-28T05:48:08;100307.78;;;22.06;23.11
74637;BME280;63141;54.616;39.754;2023-02-28T05:51:09;100302.38;;;22.09;23.31
74637;BME280;63141;54.616;39.754;2023-02-28T05:54:10;100300.53;;;22.11;23.24
74637;BME280;63141;54.616;39.754;2023-02-28T05:57:12;100296.03;;;22.13;23.46
74637;BME280;63141;54.616;39.754;2023-02-28T06:00:13;100278.28;;;22.15;23.40
74637;BME280;63141;54.616;39.754;2023-02-28T06:03:21;100279.06;;;22.17;23.26
74637;BME280;63141;54.616;39.754;2023-02-28T06:06:22;100271.94;;;22.20;23.25
74637;BME280;63141;54.616;39.754;2023-02-28T06:09:23;100263.94;;;22.21;23.51
74637;BME280;63141;54.616;39.754;2023-02-28T06:12:26;100255.91;;;22.23;23.56
74637;BME280;63141;54.616;39.754;2023-02-28T06:15:28;100254.06;;;22.25;23.73
74637;BME280;63141;54.616;39.754;2023-02-28T06:18:29;100253.94;;;22.28;23.34
74637;BME280;63141;54.616;39.754;2023-02-28T06:21:31;100244.19;;;22.28;23.49
74637;BME280;63141;54.616;39.754;2023-02-28T06:24:32;100243.19;;;22.31;23.53
74637;BME280;63141;54.616;39.754;2023-02-28T06:27:34;100251.06;;;22.34;23.71
74637;BME280;63141;54.616;39.754;2023-02-28T06:30:37;100230.66;;;22.36;23.51
74637;BME280;63141;54.616;39.754;2023-02-28T06:33:40;100222.59;;;22.37;23.64
74637;BME280;63141;54.616;39.754;2023-02-28T06:36:42;100205.69;;;22.40;23.63
74637;BME280;63141;54.616;39.754;2023-02-28T06:39:43;100198.53;;;22.42;23.76
74637;BME280;63141;54.616;39.754;2023-02-28T06:42:45;100193.97;;;22.46;23.73
74637;BME280;63141;54.616;39.754;2023-02-28T06:45:46;100185.06;;;22.47;23.56
74637;BME280;63141;54.616;39.754;2023-02-28T06:48:48;100178.78;;;22.49;23.66
74637;BME280;63141;54.616;39.754;2023-02-28T06:51:49;100166.25;;;22.53;23.72
74637;BME280;63141;54.616;39.754;2023-02-28T06:54:50;100158.28;;;22.53;23.75
74637;BME280;63141;54.616;39.754;2023-02-28T06:58:00;100156.50;;;22.53;23.74
74637;BME280;63141;54.616;39.754;2023-02-28T07:01:05;100148.47;;;22.55;23.83
74637;BME280;63141;54.616;39.754;2023-02-28T07:04:07;100144.84;;;22.57;23.71
74637;BME280;63141;54.616;39.754;2023-02-28T07:07:11;100146.53;;;22.58;23.79
74637;BME280;63141;54.616;39.754;2023-02-28T07:10:13;100142.97;;;22.59;23.80
74637;BME280;63141;54.616;39.754;2023-02-28T07:13:17;100137.66;;;22.59;23.86
74637;BME280;63141;54.616;39.754;2023-02-28T07:16:19;100128.75;;;22.61;23.98
74637;BME280;63141;54.616;39.754;2023-02-28T07:19:20;100118.16;;;22.61;23.83
74637;BME280;63141;54.616;39.754;2023-02-28T07:22:21;100112.84;;;22.61;23.91
74637;BME280;63141;54.616;39.754;2023-02-28T07:25:24;100112.78;;;22.62;24.01
74637;BME280;63141;54.616;39.754;2023-02-28T07:28:26;100109.28;;;22.62;23.99
74637;BME280;63141;54.616;39.754;2023-02-28T07:31:28;100108.34;;;22.63;24.14
74637;BME280;63141;54.616;39.754;2023-02-28T07:34:29;100096.84;;;22.62;24.03
74637;BME280;63141;54.616;39.754;2023-02-28T07:37:30;100083.59;;;22.62;24.15
74637;BME280;63141;54.616;39.754;2023-02-28T07:40:37;100082.72;;;22.62;24.19
74637;BME280;63141;54.616;39.754;2023-02-28T07:43:38;100080.06;;;22.62;24.14
74637;BME280;63141;54.616;39.754;2023-02-28T07:46:40;100076.47;;;22.63;24.29
74637;BME280;63141;54.616;39.754;2023-02-28T07:49:41;100064.84;;;22.65;24.16
74637;BME280;63141;54.616;39.754;2023-02-28T07:52:43;100069.25;;;22.66;24.27
74637;BME280;63141;54.616;39.754;2023-02-28T07:55:44;100068.25;;;22.69;24.30
74637;BME280;63141;54.616;39.754;2023-02-28T07:58:45;100039.91;;;22.69;24.21
74637;BME280;63141;54.616;39.754;2023-02-28T08:01:49;100029.22;;;22.71;24.25
74637;BME280;63141;54.616;39.754;2023-02-28T08:04:51;100012.34;;;22.72;24.29
74637;BME280;63141;54.616;39.754;2023-02-28T08:07:55;100004.34;;;22.73;24.17
74637;BME280;63141;54.616;39.754;2023-02-28T08:11:03;99998.97;;;22.75;24.28
74637;BME280;63141;54.616;39.754;2023-02-28T08:14:04;99990.06;;;22.76;24.26
74637;BME280;63141;54.616;39.754;2023-02-28T08:17:06;99984.75;;;22.76;24.25
74637;BME280;63141;54.616;39.754;2023-02-28T08:20:07;99993.50;;;22.78;24.19
74637;BME280;63141;54.616;39.754;2023-02-28T08:23:10;99983.75;;;22.78;24.25
74637;BME280;63141;54.616;39.754;2023-02-28T08:26:12;99972.25;;;22.78;24.19
74637;BME280;63141;54.616;39.754;2023-02-28T08:29:14;99965.09;;;22.80;24.49
74637;BME280;63141;54.616;39.754;2023-02-28T08:32:15;99974.88;;;22.79;24.43
74637;BME280;63141;54.616;39.754;2023-02-28T08:35:17;99958.94;;;22.79;24.31
74637;BME280;63141;54.616;39.754;2023-02-28T08:38:18;99950.09;;;22.79;24.39
74637;BME280;63141;54.616;39.754;2023-02-28T08:41:19;99942.13;;;22.79;24.43
74637;BME280;63141;54.616;39.754;2023-02-28T08:44:21;99942.13;;;22.79;24.45
74637;BME280;63141;54.616;39.754;2023-02-28T08:47:22;99929.78;;;22.78;24.46
74637;BME280;63141;54.616;39.754;2023-02-28T08:50:23;99921.81;;;22.78;24.60
74637;BME280;63141;54.616;39.754;2023-02-28T08:53:25;99903.22;;;22.78;24.49
74637;BME280;63141;54.616;39.754;2023-02-28T08:56:27;99907.69;;;22.77;24.52
74637;BME280;63141;54.616;39.754;2023-02-28T08:59:29;99896.22;;;22.77;24.63
74637;BME280;63141;54.616;39.754;2023-02-28T09:02:33;99900.63;;;22.76;24.57
74637;BME280;63141;54.616;39.754;2023-02-28T09:05:35;99892.63;;;22.78;24.54
74637;BME280;63141;54.616;39.754;2023-02-28T09:08:39;99882.00;;;22.78;24.65
74637;BME280;63141;54.616;39.754;2023-02-28T09:11:40;99886.34;;;22.79;24.80
74637;BME280;63141;54.616;39.754;2023-02-28T09:14:42;99877.53;;;22.78;24.56
74637;BME280;63141;54.616;39.754;2023-02-28T09:17:43;99876.69;;;22.78;24.65
74637;BME280;63141;54.616;39.754;2023-02-28T09:20:44;99864.25;;;22.78;24.60
74637;BME280;63141;54.616;39.754;2023-02-28T09:23:48;99862.47;;;22.79;24.67
74637;BME280;63141;54.616;39.754;2023-02-28T09:26:49;99861.59;;;22.78;24.70
74637;BME280;63141;54.616;39.754;2023-02-28T09:29:51;99844.66;;;22.81;24.78
74637;BME280;63141;54.616;39.754;2023-02-28T09:32:52;99842.09;;;22.79;24.68
74637;BME280;63141;54.616;39.754;2023-02-28T09:36:00;99833.13;;;22.82;24.88
74637;BME280;63141;54.616;39.754;2023-02-28T09:39:01;99846.41;;;22.82;24.67
74637;BME280;63141;54.616;39.754;2023-02-28T09:42:04;99839.34;;;22.81;24.72
74637;BME280;63141;54.616;39.754;2023-02-28T09:45:15;99821.56;;;22.83;24.82
74637;BME280;63141;54.616;39.754;2023-02-28T09:48:23;99817.19;;;22.82;24.70
74637;BME280;63141;54.616;39.754;2023-02-28T09:51:55;99808.28;;;22.83;24.78
74637;BME280;63141;54.616;39.754;2023-02-28T09:55:20;99818.91;;;22.83;24.71
74637;BME280;63141;54.616;39.754;2023-02-28T09:58:31;99805.63;;;22.83;24.77
74637;BME280;63141;54.616;39.754;2023-02-28T10:01:40;99810.94;;;22.83;24.74
74637;BME280;63141;54.616;39.754;2023-02-28T10:05:07;99798.50;;;22.84;24.70
74637;BME280;63141;54.616;39.754;2023-02-28T10:08:26;99794.94;;;22.85;24.74
74637;BME280;63141;54.616;39.754;2023-02-28T10:11:32;99787.84;;;22.85;24.73
74637;BME280;63141;54.616;39.754;2023-02-28T10:14:35;99776.34;;;22.85;24.68
74637;BME280;63141;54.616;39.754;2023-02-28T10:17:40;99774.56;;;22.85;24.98
74637;BME280;63141;54.616;39.754;2023-02-28T10:20:42;99770.09;;;22.86;24.70
74637;BME280;63141;54.616;39.754;2023-02-28T10:23:44;99763.88;;;22.87;24.74
74637;BME280;63141;54.616;39.754;2023-02-28T10:26:48;99745.28;;;22.87;24.87
74637;BME280;63141;54.616;39.754;2023-02-28T10:29:55;99738.16;;;22.87;24.90
74637;BME280;63141;54.616;39.754;2023-02-28T10:32:57;99721.28;;;22.88;24.88
74637;BME280;63141;54.616;39.754;2023-02-28T10:35:59;99715.97;;;22.88;24.74
74637;BME280;63141;54.616;39.754;2023-02-28T10:39:00;99714.28;;;22.87;24.82
74637;BME280;63141;54.616;39.754;2023-02-28T10:42:01;99703.59;;;22.89;24.87
74637;BME280;63141;54.616;39.754;2023-02-28T10:45:21;99695.69;;;22.87;24.87
74637;BME280;63141;54.616;39.754;2023-02-28T10:48:31;99688.50;;;22.89;24.94
74637;BME280;63141;54.616;39.754;2023-02-28T10:51:41;99671.63;;;22.90;24.85
74637;BME280;63141;54.616;39.754;2023-02-28T10:54:42;99683.19;;;22.89;24.80
74637;BME280;63141;54.616;39.754;2023-02-28T10:57:43;99690.22;;;22.90;24.79
74637;BME280;63141;54.616;39.754;2023-02-28T11:00:48;99662.81;;;22.90;24.94
74637;BME280;63141;54.616;39.754;2023-02-28T11:03:51;99653.91;;;22.91;24.87
74637;BME280;63141;54.616;39.754;2023-02-28T11:07:00;99667.19;;;22.91;25.01
74637;BME280;63141;54.616;39.754;2023-02-28T11:10:03;99656.56;;;22.91;24.95
74637;BME280;63141;54.616;39.754;2023-02-28T11:13:05;99656.56;;;22.91;24.86
74637;BME280;63141;54.616;39.754;2023-02-28T11:16:09;99637.03;;;22.92;24.96
74637;BME280;63141;54.616;39.754;2023-02-28T11:19:22;99638.84;;;22.91;24.83
74637;BME280;63141;54.616;39.754;2023-02-28T11:22:27;99623.75;;;22.92;24.92
74637;BME280;63141;54.616;39.754;2023-02-28T11:25:33;99618.38;;;22.93;24.81
74637;BME280;63141;54.616;39.754;2023-02-28T11:28:38;99603.34;;;22.92;24.92
74637;BME280;63141;54.616;39.754;2023-02-28T11:31:40;99603.34;;;22.92;24.85
74637;BME280;63141;54.616;39.754;2023-02-28T11:34:42;99592.75;;;22.92;25.05
74637;BME280;63141;54.616;39.754;2023-02-28T11:37:43;99592.75;;;22.92;24.95
74637;BME280;63141;54.616;39.754;2023-02-28T11:44:09;99559.16;;;22.91;24.75
74637;BME280;63141;54.616;39.754;2023-02-28T11:56:58;99561.03;;;22.89;25.13
74637;BME280;63141;54.616;39.754;2023-02-28T12:00:38;99556.59;;;22.90;25.35
74637;BME280;63141;54.616;39.754;2023-02-28T12:17:53;99529.72;;;22.96;26.02
74637;BME280;63141;54.616;39.754;2023-02-28T12:27:40;99517.22;;;22.98;26.09
74637;BME280;63141;54.616;39.754;2023-02-28T12:31:03;99512.75;;;22.98;25.95
74637;BME280;63141;54.616;39.754;2023-02-28T12:34:12;99511.91;;;22.98;25.99
74637;BME280;63141;54.616;39.754;2023-02-28T12:37:31;99517.22;;;22.98;25.88
74637;BME280;63141;54.616;39.754;2023-02-28T12:47:19;99508.38;;;22.97;25.95
74637;BME280;63141;54.616;39.754;2023-02-28T12:50:21;99512.75;;;22.98;25.89
74637;BME280;63141;54.616;39.754;2023-02-28T12:53:28;99507.44;;;22.98;25.82
74637;BME280;63141;54.616;39.754;2023-02-28T12:59:43;99509.19;;;22.99;25.94
74637;BME280;63141;54.616;39.754;2023-02-28T13:06:18;99503.00;;;22.99;25.96
74637;BME280;63141;54.616;39.754;2023-02-28T13:09:24;99496.81;;;22.98;25.83
74637;BME280;63141;54.616;39.754;2023-02-28T13:12:26;99496.81;;;22.98;25.97
74637;BME280;63141;54.616;39.754;2023-02-28T13:15:28;99496.81;;;22.98;25.88
74637;BME280;63141;54.616;39.754;2023-02-28T13:21:42;99493.25;;;22.99;25.78
74637;BME280;63141;54.616;39.754;2023-02-28T13:24:48;99493.25;;;22.99;25.85
74637;BME280;63141;54.616;39.754;2023-02-28T13:27:54;99487.09;;;22.99;25.78
74637;BME280;63141;54.616;39.754;2023-02-28T13:34:14;99482.63;;;22.99;25.79
74637;BME280;63141;54.616;39.754;2023-02-28T13:40:28;99472.00;;;22.99;25.91
74637;BME280;63141;54.616;39.754;2023-02-28T13:44:00;99459.66;;;22.98;25.97
74637;BME280;63141;54.616;39.754;2023-02-28T14:00:42;99438.41;;;22.98;25.98
74637;BME280;63141;54.616;39.754;2023-02-28T14:04:04;99434.00;;;22.97;26.00
74637;BME280;63141;54.616;39.754;2023-02-28T14:07:18;99436.66;;;22.97;26.06
74637;BME280;63141;54.616;39.754;2023-02-28T14:16:35;99408.34;;;22.98;25.99
74637;BME280;63141;54.616;39.754;2023-02-28T14:19:38;99411.84;;;22.98;26.23
74637;BME280;63141;54.616;39.754;2023-02-28T14:32:35;99373.88;;;22.96;25.98
74637;BME280;63141;54.616;39.754;2023-02-28T14:39:22;99379.19;;;22.96;26.12
74637;BME280;63141;54.616;39.754;2023-02-28T14:42:37;99370.22;;;22.99;26.14
74637;BME280;63141;54.616;39.754;2023-02-28T14:45:51;99340.13;;;22.98;26.31
74637;BME280;63141;54.616;39.754;2023-02-28T14:48:54;99339.22;;;22.99;26.45
74637;BME280;63141;54.616;39.754;2023-02-28T14:52:07;99335.63;;;23.00;26.87
74637;BME280;63141;54.616;39.754;2023-02-28T14:55:17;99330.31;;;23.00;27.63
74637;BME280;63141;54.616;39.754;2023-02-28T14:58:31;99342.66;;;23.02;28.67
74637;BME280;63141;54.616;39.754;2023-02-28T15:01:32;99339.91;;;23.03;28.87
74637;BME280;63141;54.616;39.754;2023-02-28T15:04:39;99340.75;;;23.04;29.19
74637;BME280;63141;54.616;39.754;2023-02-28T15:07:44;99342.50;;;23.05;29.38
74637;BME280;63141;54.616;39.754;2023-02-28T15:13:58;99345.22;;;23.03;29.41
74637;BME280;63141;54.616;39.754;2023-02-28T15:17:07;99332.91;;;23.02;29.09
74637;BME280;63141;54.616;39.754;2023-02-28T15:20:13;99343.53;;;23.02;29.18
74637;BME280;63141;54.616;39.754;2023-02-28T15:23:18;99335.63;;;23.00;28.93
74637;BME280;63141;54.616;39.754;2023-02-28T15:26:24;99335.63;;;23.00;28.69
74637;BME280;63141;54.616;39.754;2023-02-28T15:29:30;99339.22;;;22.99;28.50
74637;BME280;63141;54.616;39.754;2023-02-28T15:32:39;99337.44;;;23.00;28.44
74637;BME280;63141;54.616;39.754;2023-02-28T15:35:40;99339.22;;;22.99;28.47
74637;BME280;63141;54.616;39.754;2023-02-28T15:38:42;99332.19;;;22.98;28.34
74637;BME280;63141;54.616;39.754;2023-02-28T15:41:45;99329.53;;;22.98;28.15
74637;BME280;63141;54.616;39.754;2023-02-28T15:44:46;99337.47;;;22.98;28.13
74637;BME280;63141;54.616;39.754;2023-02-28T15:47:48;99333.09;;;22.97;27.85
74637;BME280;63141;54.616;39.754;2023-02-28T15:50:54;99332.19;;;22.98;27.81
74637;BME280;63141;54.616;39.754;2023-02-28T15:54:07;99331.31;;;22.98;27.79
74637;BME280;63141;54.616;39.754;2023-02-28T15:57:17;99326.88;;;22.98;27.45
74637;BME280;63141;54.616;39.754;2023-02-28T16:00:22;99331.31;;;22.98;27.52
74637;BME280;63141;54.616;39.754;2023-02-28T16:03:50;99327.78;;;22.97;27.39
74637;BME280;63141;54.616;39.754;2023-02-28T16:10:00;99326.09;;;22.96;27.17
74637;BME280;63141;54.616;39.754;2023-02-28T16:13:02;99311.13;;;22.95;27.23
74637;BME280;63141;54.616;39.754;2023-02-28T16:16:03;99312.81;;;22.96;27.06
74637;BME280;63141;54.616;39.754;2023-02-28T16:19:05;99312.81;;;22.96;27.02
74637;BME280;63141;54.616;39.754;2023-02-28T16:22:08;99309.31;;;22.96;26.99
74637;BME280;63141;54.616;39.754;2023-02-28T16:25:19;99303.16;;;22.95;26.97
74637;BME280;63141;54.616;39.754;2023-02-28T16:28:25;99289.88;;;22.95;27.25
74637;BME280;63141;54.616;39.754;2023-02-28T16:31:33;99282.66;;;22.97;27.78
74637;BME280;63141;54.616;39.754;2023-02-28T16:34:36;99290.56;;;22.99;28.80
74637;BME280;63141;54.616;39.754;2023-02-28T16:37:37;99274.56;;;23.00;29.13
74637;BME280;63141;54.616;39.754;2023-02-28T16:40:39;99278.91;;;23.02;29.01
74637;BME280;63141;54.616;39.754;2023-02-28T16:43:40;99267.44;;;23.01;28.67
74637;BME280;63141;54.616;39.754;2023-02-28T16:46:42;99263.94;;;23.00;28.69
74637;BME280;63141;54.616;39.754;2023-02-28T16:49:43;99264.00;;;22.99;28.70
74637;BME280;63141;54.616;39.754;2023-02-28T16:52:45;99257.78;;;23.00;28.69
74637;BME280;63141;54.616;39.754;2023-02-28T16:55:47;99258.53;;;23.02;29.47
74637;BME280;63141;54.616;39.754;2023-02-28T16:58:49;99255.44;;;23.10;29.95
74637;BME280;63141;54.616;39.754;2023-02-28T17:01:54;99254.97;;;23.17;30.09
74637;BME280;63141;54.616;39.754;2023-02-28T17:04:58;99258.13;;;23.24;30.08
74637;BME280;63141;54.616;39.754;2023-02-28T17:08:02;99258.72;;;23.29;30.14
74637;BME280;63141;54.616;39.754;2023-02-28T17:11:03;99240.81;;;23.33;30.07
74637;BME280;63141;54.616;39.754;2023-02-28T17:14:05;99241.38;;;23.38;30.11
74637;BME280;63141;54.616;39.754;2023-02-28T17:17:07;99235.78;;;23.42;30.29
74637;BME280;63141;54.616;39.754;2023-02-28T17:20:20;99235.44;;;23.49;30.50
74637;BME280;63141;54.616;39.754;2023-02-28T17:23:24;99236.09;;;23.52;30.47
74637;BME280;63141;54.616;39.754;2023-02-28T17:26:25;99236.41;;;23.62;30.65
74637;BME280;63141;54.616;39.754;2023-02-28T17:29:28;99223.31;;;23.73;31.32
74637;BME280;63141;54.616;39.754;2023-02-28T17:32:29;99228.47;;;23.76;31.03
74637;BME280;63141;54.616;39.754;2023-02-28T17:35:31;99226.59;;;23.78;30.98
74637;BME280;63141;54.616;39.754;2023-02-28T17:38:33;99209.50;;;23.82;31.15
74637;BME280;63141;54.616;39.754;2023-02-28T17:41:34;99218.97;;;23.87;30.43
74637;BME280;63141;54.616;39.754;2023-02-28T17:44:35;99210.06;;;23.88;30.48
74637;BME280;63141;54.616;39.754;2023-02-28T17:47:39;99210.91;;;23.88;30.66
74637;BME280;63141;54.616;39.754;2023-02-28T17:50:40;99206.44;;;23.89;30.31
74637;BME280;63141;54.616;39.754;2023-02-28T17:53:42;99204.66;;;23.89;30.19
74637;BME280;63141;54.616;39.754;2023-02-28T17:56:43;99197.53;;;23.90;30.19
74637;BME280;63141;54.616;39.754;2023-02-28T17:59:45;99189.44;;;23.91;29.84
74637;BME280;63141;54.616;39.754;2023-02-28T18:02:49;99190.13;;;23.95;29.99
74637;BME280;63141;54.616;39.754;2023-02-28T18:05:50;99194.59;;;23.94;29.74
74637;BME280;63141;54.616;39.754;2023-02-28T18:08:54;99194.59;;;23.94;29.53